Time;durP1;ratioP1;P1;durP2;ratioP2;P2;SDS_P1;SDS_P2;PMS_P1;PMS_P2;Temp;Humidity;BMP_temperature;BMP_pressure;BME280_temperature;BME280_humidity;BME280_pressure;Samples;Min_cycle;Max_cycle;Signal;HPM_P1;HPM_P2
2021/12/12 00:01:23;;;;;;;19.73;17.47;;;2.00;99.90;;;;;;4985188;28;20170;-72
2021/12/12 00:03:53;;;;;;;20.73;17.03;;;2.10;99.90;;;;;;4982156;28;20652;-72
2021/12/12 00:06:27;;;;;;;20.23;17.43;;;2.00;99.90;;;;;;4984334;28;20185;-72
2021/12/12 00:08:57;;;;;;;23.47;18.87;;;2.00;99.90;;;;;;4979879;28;20280;-72
2021/12/12 00:11:29;;;;;;;19.13;16.93;;;2.00;99.90;;;;;;4982550;28;20202;-72
2021/12/12 00:13:58;;;;;;;20.43;18.23;;;2.10;99.90;;;;;;4984766;28;20752;-72
2021/12/12 00:16:24;;;;;;;19.77;17.27;;;2.10;99.90;;;;;;4979539;28;20186;-72
2021/12/12 00:18:50;;;;;;;22.07;15.80;;;2.20;99.90;;;;;;4982847;28;20194;-72
2021/12/12 00:21:18;;;;;;;17.40;14.60;;;2.20;99.90;;;;;;4981314;28;20228;-72
2021/12/12 00:23:43;;;;;;;21.03;18.73;;;2.30;99.90;;;;;;4983570;28;20192;-72
2021/12/12 00:26:09;;;;;;;21.47;17.97;;;2.10;99.90;;;;;;4980826;28;20260;-72
2021/12/12 00:28:35;;;;;;;20.57;17.00;;;2.10;99.90;;;;;;4984775;28;20706;-72
2021/12/12 00:31:09;;;;;;;26.43;20.43;;;2.00;99.90;;;;;;4964447;28;20224;-72
2021/12/12 00:33:37;;;;;;;25.93;18.97;;;2.00;99.90;;;;;;4964436;28;20201;-72
2021/12/12 00:36:04;;;;;;;23.07;19.00;;;1.90;99.90;;;;;;4966565;28;20182;-72
2021/12/12 00:38:33;;;;;;;22.37;19.97;;;1.90;99.90;;;;;;4984180;28;20202;-72
2021/12/12 00:41:07;;;;;;;25.20;21.57;;;1.70;99.90;;;;;;4981671;28;20178;-72
2021/12/12 00:43:40;;;;;;;25.43;19.83;;;1.60;99.90;;;;;;4980345;28;20262;-72
2021/12/12 00:46:08;;;;;;;24.37;20.10;;;1.70;99.90;;;;;;4982228;28;20197;-72
2021/12/12 00:48:34;;;;;;;23.77;20.10;;;1.80;99.90;;;;;;4983316;28;20198;-72
2021/12/12 00:51:03;;;;;;;24.07;19.53;;;1.80;99.90;;;;;;4985981;28;20664;-72
2021/12/12 00:53:30;;;;;;;23.20;19.43;;;1.80;99.90;;;;;;4982978;28;20300;-72
2021/12/12 00:55:55;;;;;;;23.63;19.83;;;1.80;99.90;;;;;;4981166;28;20175;-72
2021/12/12 00:58:22;;;;;;;21.67;18.87;;;1.70;99.90;;;;;;4983292;28;20194;-72
2021/12/12 01:00:53;;;;;;;23.90;20.50;;;1.70;99.90;;;;;;4979704;28;20240;-72
2021/12/12 01:03:23;;;;;;;25.20;20.33;;;1.80;99.90;;;;;;4985795;28;20591;-72
2021/12/12 01:05:51;;;;;;;22.40;19.07;;;1.80;99.90;;;;;;4964628;28;20265;-72
2021/12/12 01:08:17;;;;;;;22.67;19.37;;;1.90;99.90;;;;;;4966673;28;20208;-72
2021/12/12 01:11:05;;;;;;;24.60;19.63;;;1.90;99.90;;;;;;4983108;28;20181;-72
2021/12/12 01:13:31;;;;;;;25.23;21.00;;;1.80;99.90;;;;;;4971117;28;20229;-72
2021/12/12 01:16:14;;;;;;;25.87;21.27;;;1.90;99.90;;;;;;4983146;28;20174;-72
2021/12/12 01:18:46;;;;;;;23.13;19.00;;;1.90;99.90;;;;;;4963813;28;20248;-72
2021/12/12 01:21:17;;;;;;;24.33;20.07;;;2.00;99.90;;;;;;4984174;28;20190;-72
2021/12/12 01:23:55;;;;;;;23.77;19.80;;;2.00;99.90;;;;;;4978855;28;20266;-72
2021/12/12 01:26:21;;;;;;;23.57;19.50;;;1.90;99.90;;;;;;4969084;28;20182;-72
2021/12/12 01:28:53;;;;;;;23.43;19.80;;;1.90;99.90;;;;;;4981249;28;20701;-72
2021/12/12 01:31:24;;;;;;;22.07;18.53;;;2.00;99.90;;;;;;4981305;28;20186;-72
2021/12/12 01:33:58;;;;;;;22.17;18.67;;;2.10;99.90;;;;;;4986721;28;20209;-72
2021/12/12 01:36:42;;;;;;;23.77;18.73;;;2.10;99.90;;;;;;4989990;28;20197;-72
2021/12/12 01:39:08;;;;;;;26.10;20.63;;;2.20;99.90;;;;;;4990837;28;20198;-72
2021/12/12 01:41:44;;;;;;;25.60;20.90;;;2.20;99.90;;;;;;4992200;28;20299;-72
2021/12/12 01:44:17;;;;;;;27.60;20.43;;;2.20;99.90;;;;;;4991654;28;20173;-72
2021/12/12 01:46:50;;;;;;;25.13;21.00;;;2.20;99.90;;;;;;4991502;28;20308;-72
2021/12/12 01:49:22;;;;;;;25.33;20.87;;;2.10;99.90;;;;;;4992120;28;20206;-72
2021/12/12 01:51:53;;;;;;;25.07;20.50;;;2.10;99.90;;;;;;4990202;28;20649;-72
2021/12/12 01:54:25;;;;;;;22.67;19.23;;;2.10;99.90;;;;;;4972526;28;20213;-72
2021/12/12 01:56:54;;;;;;;26.67;19.50;;;2.10;99.90;;;;;;4966749;28;20190;-72
2021/12/12 01:59:23;;;;;;;27.07;20.50;;;2.10;99.90;;;;;;4974562;28;20205;-73
2021/12/12 02:02:14;;;;;;;28.93;22.33;;;2.20;99.90;;;;;;4985348;28;20174;-73
2021/12/12 02:04:47;;;;;;;27.50;18.60;;;2.20;99.90;;;;;;4981195;28;20261;-73
2021/12/12 02:07:16;;;;;;;26.37;20.50;;;2.20;99.90;;;;;;4995368;28;20186;-76
2021/12/12 02:09:43;;;;;;;26.70;20.23;;;2.20;99.90;;;;;;4984652;28;20195;-75
2021/12/12 02:12:10;;;;;;;27.60;19.63;;;2.10;99.90;;;;;;4975956;28;20179;-76
2021/12/12 02:14:38;;;;;;;29.57;22.20;;;2.10;99.90;;;;;;4972380;28;20295;-75
2021/12/12 02:17:23;;;;;;;31.47;22.27;;;2.10;99.90;;;;;;4991969;28;20261;-75
2021/12/12 02:20:05;;;;;;;32.93;23.53;;;2.00;99.90;;;;;;4992167;28;20218;-75
2021/12/12 02:36:12;;;;;;;30.37;22.40;;;2.10;99.90;;;;;;4975559;28;20269;-75
2021/12/12 02:38:39;;;;;;;28.07;21.63;;;2.00;99.90;;;;;;4975400;28;20575;-76
2021/12/12 02:41:08;;;;;;;33.90;21.97;;;1.90;99.90;;;;;;4989829;28;20174;-75
2021/12/12 02:43:39;;;;;;;35.37;23.27;;;1.90;99.90;;;;;;4994790;28;20556;-75
2021/12/12 02:46:05;;;;;;;33.47;24.27;;;1.70;99.90;;;;;;4994742;28;20162;-75
2021/12/12 02:48:35;;;;;;;29.10;22.13;;;1.80;99.90;;;;;;4984549;28;20208;-75
2021/12/12 02:51:05;;;;;;;32.83;24.90;;;1.80;99.90;;;;;;4991948;28;20174;-76
2021/12/12 02:53:38;;;;;;;31.53;23.17;;;1.80;99.90;;;;;;4995053;28;20236;-75
2021/12/12 02:56:08;;;;;;;28.73;21.10;;;1.70;99.90;;;;;;4991392;28;20189;-75
2021/12/12 02:58:34;;;;;;;28.00;19.13;;;1.80;99.90;;;;;;4975332;28;20265;-75
2021/12/12 03:01:29;;;;;;;31.87;23.13;;;1.90;99.90;;;;;;4980317;28;20174;-75
2021/12/12 03:03:55;;;;;;;36.10;24.10;;;1.90;99.90;;;;;;4994355;28;20269;-73
2021/12/12 03:06:24;;;;;;;33.77;23.73;;;1.90;99.90;;;;;;4993338;28;20193;-74
2021/12/12 03:08:59;;;;;;;33.50;21.73;;;2.00;99.90;;;;;;4994340;28;20240;-74
2021/12/12 03:11:27;;;;;;;34.53;22.30;;;1.90;99.90;;;;;;4994204;28;20185;-74
2021/12/12 03:13:54;;;;;;;30.60;21.17;;;1.90;99.90;;;;;;4982279;28;20289;-74
2021/12/12 03:16:21;;;;;;;30.27;22.20;;;1.90;99.90;;;;;;4982003;28;20184;-74
2021/12/12 03:18:48;;;;;;;31.47;23.23;;;1.90;99.90;;;;;;4982700;28;20202;-74
2021/12/12 03:21:18;;;;;;;34.23;23.33;;;1.90;99.90;;;;;;4984822;28;20595;-74
2021/12/12 03:23:48;;;;;;;30.03;22.20;;;1.90;99.90;;;;;;4987219;28;20189;-74
2021/12/12 03:26:17;;;;;;;32.00;22.23;;;1.90;99.90;;;;;;4981795;28;20210;-74
2021/12/12 03:28:45;;;;;;;32.50;22.13;;;1.90;99.90;;;;;;4992813;28;20273;-75
2021/12/12 03:31:17;;;;;;;31.53;21.27;;;2.00;99.90;;;;;;4983558;28;20552;-74
2021/12/12 03:33:43;;;;;;;28.53;21.60;;;2.00;99.90;;;;;;4967697;28;20194;-74
2021/12/12 03:36:11;;;;;;;28.17;20.60;;;2.00;99.90;;;;;;4982505;28;20187;-71
2021/12/12 03:38:41;;;;;;;26.23;20.23;;;1.90;99.90;;;;;;4967573;28;20636;-71
2021/12/12 03:41:09;;;;;;;29.93;20.20;;;2.00;99.90;;;;;;4976715;28;20186;-72
2021/12/12 03:43:37;;;;;;;20.33;13.90;;;2.00;99.90;;;;;;4986238;28;20189;-74
2021/12/12 03:46:05;;;;;;;32.30;22.07;;;2.00;99.90;;;;;;4959674;28;20175;-74
2021/12/12 03:48:33;;;;;;;29.23;21.87;;;2.00;99.90;;;;;;4992822;28;20684;-72
2021/12/12 03:51:01;;;;;;;27.47;20.03;;;2.00;99.90;;;;;;4993403;28;20575;-73
2021/12/12 03:53:30;;;;;;;24.90;19.83;;;1.90;99.90;;;;;;4993632;28;20202;-72
2021/12/12 03:55:57;;;;;;;29.70;21.23;;;1.80;99.90;;;;;;4993249;28;20719;-73
2021/12/12 03:58:24;;;;;;;25.13;20.07;;;1.80;99.90;;;;;;4993097;28;20190;-72
2021/12/12 04:01:09;;;;;;;28.17;21.00;;;2.00;99.90;;;;;;4993586;28;20178;-72
2021/12/12 04:03:35;;;;;;;30.03;21.20;;;2.00;99.90;;;;;;4993452;28;20181;-73
2021/12/12 04:06:05;;;;;;;25.17;17.83;;;2.10;99.90;;;;;;4993131;28;20174;-73
2021/12/12 04:08:38;;;;;;;29.07;19.83;;;2.10;99.90;;;;;;4974043;28;20282;-72
2021/12/12 04:11:11;;;;;;;29.57;21.27;;;2.20;99.90;;;;;;4973975;28;20162;-73
2021/12/12 04:13:41;;;;;;;27.47;19.77;;;2.20;99.90;;;;;;4956446;28;20677;-72
2021/12/12 04:16:07;;;;;;;28.47;20.83;;;2.20;99.90;;;;;;4973453;28;20185;-73
2021/12/12 04:18:33;;;;;;;29.43;20.37;;;2.10;99.90;;;;;;4972560;28;20282;-72
2021/12/12 04:20:59;;;;;;;29.70;21.83;;;2.00;99.90;;;;;;4983293;28;20332;-72
2021/12/12 04:23:27;;;;;;;28.83;20.27;;;2.00;99.90;;;;;;4992724;28;20645;-72
2021/12/12 04:25:53;;;;;;;27.87;20.40;;;2.10;99.90;;;;;;4992465;28;20261;-72
2021/12/12 04:28:21;;;;;;;31.23;20.93;;;2.20;99.90;;;;;;4992554;28;20209;-72
2021/12/12 04:30:46;;;;;;;29.40;20.57;;;2.10;99.90;;;;;;4992999;28;20181;-72
2021/12/12 04:33:13;;;;;;;29.00;19.50;;;2.20;99.90;;;;;;4992701;28;20206;-73
2021/12/12 04:35:39;;;;;;;29.87;19.03;;;2.20;99.90;;;;;;4975066;28;20245;-72
2021/12/12 04:38:05;;;;;;;29.37;21.10;;;2.30;99.90;;;;;;4983846;28;20689;-76
2021/12/12 04:40:34;;;;;;;28.57;21.47;;;2.30;99.90;;;;;;4992585;28;20264;-75
2021/12/12 04:43:00;;;;;;;31.90;21.00;;;2.30;99.90;;;;;;4992507;28;20270;-75
2021/12/12 04:45:51;;;;;;;28.87;20.20;;;2.30;99.90;;;;;;4992530;28;20193;-73
2021/12/12 04:51:43;;;;;;;26.93;19.60;;;2.40;99.90;;;;;;4973678;28;20182;-75
2021/12/12 04:54:39;;;;;;;26.70;19.53;;;2.40;99.90;;;;;;4973284;28;20281;-75
2021/12/12 04:57:22;;;;;;;33.73;21.13;;;2.40;99.90;;;;;;4973212;28;20183;-75
2021/12/12 04:59:59;;;;;;;33.53;21.60;;;2.20;99.90;;;;;;5008239;28;20181;-72
2021/12/12 05:02:46;;;;;;;28.83;19.33;;;2.40;99.90;;;;;;5012393;28;20644;-73
2021/12/12 05:05:33;;;;;;;38.30;24.00;;;2.40;99.90;;;;;;4999861;28;20181;-72
2021/12/12 05:08:07;;;;;;;33.70;21.10;;;2.30;99.90;;;;;;4992506;28;20557;-72
2021/12/12 05:10:41;;;;;;;31.40;21.43;;;2.30;99.90;;;;;;4992608;28;20166;-75
2021/12/12 05:13:21;;;;;;;34.93;22.80;;;2.40;99.90;;;;;;4991870;28;20297;-72
2021/12/12 05:15:51;;;;;;;36.20;24.13;;;2.40;99.90;;;;;;4992351;28;20170;-72
2021/12/12 05:18:22;;;;;;;35.07;21.73;;;2.30;99.90;;;;;;4992482;28;20186;-72
2021/12/12 05:20:55;;;;;;;34.93;23.23;;;2.20;99.90;;;;;;4991715;28;20190;-73
2021/12/12 05:23:24;;;;;;;33.77;21.33;;;2.30;99.90;;;;;;4991824;28;20209;-72
2021/12/12 05:25:56;;;;;;;32.37;22.03;;;2.30;99.90;;;;;;4992233;28;20701;-73
2021/12/12 05:28:27;;;;;;;31.67;22.13;;;2.30;99.90;;;;;;4992610;28;20190;-72
2021/12/12 05:30:53;;;;;;;33.33;21.70;;;2.30;99.90;;;;;;4991642;28;20182;-72
2021/12/12 05:33:20;;;;;;;33.87;20.80;;;2.30;99.90;;;;;;4975167;28;20210;-72
2021/12/12 05:35:47;;;;;;;29.40;20.40;;;2.30;99.90;;;;;;4992163;28;20169;-72
2021/12/12 05:38:14;;;;;;;37.60;22.83;;;2.30;99.90;;;;;;4992012;28;20201;-73
2021/12/12 05:40:42;;;;;;;31.07;22.77;;;2.40;99.90;;;;;;4993532;28;20228;-72
2021/12/12 05:43:12;;;;;;;34.03;23.17;;;2.40;99.90;;;;;;4965901;28;20182;-73
2021/12/12 05:45:38;;;;;;;33.97;17.77;;;2.40;99.90;;;;;;4975338;28;20713;-72
2021/12/12 05:48:06;;;;;;;32.10;20.60;;;2.30;99.90;;;;;;4984151;28;20232;-72
2021/12/12 05:50:31;;;;;;;32.47;22.00;;;2.40;99.90;;;;;;4973448;28;20192;-72
2021/12/12 05:52:57;;;;;;;30.43;17.23;;;2.30;99.90;;;;;;4976312;28;20567;-73
2021/12/12 05:55:28;;;;;;;35.03;20.90;;;2.40;99.90;;;;;;4976185;28;20171;-73
2021/12/12 05:57:56;;;;;;;31.07;22.83;;;2.40;99.90;;;;;;4978350;28;20207;-73
2021/12/12 06:00:27;;;;;;;32.00;22.77;;;2.30;99.90;;;;;;4994918;28;20178;-73
2021/12/12 06:02:54;;;;;;;28.40;19.93;;;2.30;99.90;;;;;;4995440;28;20190;-73
2021/12/12 06:05:21;;;;;;;25.80;21.13;;;2.20;99.90;;;;;;4978894;28;20197;-75
2021/12/12 06:07:48;;;;;;;15.67;10.97;;;2.20;99.90;;;;;;4992237;28;20277;-72
2021/12/12 06:10:16;;;;;;;18.57;12.17;;;2.20;99.90;;;;;;4995532;28;20178;-75
2021/12/12 06:12:43;;;;;;;25.33;18.50;;;2.30;99.90;;;;;;4989381;28;20198;-75
2021/12/12 06:15:12;;;;;;;24.53;18.23;;;2.30;99.90;;;;;;4969532;28;20185;-76
2021/12/12 06:17:38;;;;;;;25.17;18.60;;;2.20;99.90;;;;;;4986254;28;20274;-75
2021/12/12 06:20:07;;;;;;;25.70;19.13;;;2.10;99.90;;;;;;4994611;28;20190;-75
2021/12/12 06:22:33;;;;;;;22.93;13.50;;;2.10;99.90;;;;;;4970447;28;20197;-74
2021/12/12 06:24:59;;;;;;;18.03;12.50;;;2.20;99.90;;;;;;4986004;28;20186;-76
2021/12/12 06:27:25;;;;;;;20.23;15.47;;;2.10;99.90;;;;;;4985139;28;20579;-76
2021/12/12 06:29:54;;;;;;;20.33;15.33;;;2.10;99.90;;;;;;4981438;28;20254;-75
2021/12/12 06:32:20;;;;;;;23.30;18.17;;;2.00;99.90;;;;;;4978601;28;20181;-76
2021/12/12 06:34:46;;;;;;;22.13;17.87;;;2.10;99.90;;;;;;4982649;28;20202;-76
2021/12/12 06:37:13;;;;;;;23.83;16.17;;;2.10;99.90;;;;;;4984528;28;20178;-75
2021/12/12 06:39:39;;;;;;;19.27;15.90;;;2.00;99.90;;;;;;4983376;28;20174;-74
2021/12/12 06:42:06;;;;;;;21.73;17.30;;;2.10;99.90;;;;;;4994616;28;20653;-74
2021/12/12 06:44:37;;;;;;;23.30;17.87;;;2.10;99.90;;;;;;4994092;28;20198;-76
2021/12/12 06:47:04;;;;;;;23.40;16.37;;;2.10;99.90;;;;;;4982636;28;20182;-75
2021/12/12 06:49:30;;;;;;;16.83;13.97;;;2.10;99.90;;;;;;4960482;28;20182;-75
2021/12/12 06:51:59;;;;;;;18.43;15.30;;;2.20;99.90;;;;;;4965477;28;20273;-75
2021/12/12 06:54:31;;;;;;;22.13;15.87;;;2.10;99.90;;;;;;4980069;28;20205;-75
2021/12/12 06:57:00;;;;;;;16.57;10.87;;;2.20;99.90;;;;;;4990952;28;20181;-74
2021/12/12 06:59:29;;;;;;;17.07;13.87;;;2.30;99.90;;;;;;4983911;28;20194;-74
2021/12/12 07:01:56;;;;;;;19.43;14.03;;;2.40;99.90;;;;;;4990677;28;20170;-74
2021/12/12 07:04:23;;;;;;;18.87;14.40;;;2.30;99.90;;;;;;4988435;28;20174;-73
2021/12/12 07:06:53;;;;;;;18.17;14.43;;;2.40;99.90;;;;;;4991011;28;20186;-74
2021/12/12 07:09:19;;;;;;;14.10;9.77;;;2.50;99.90;;;;;;4981601;28;20214;-74
2021/12/12 07:11:46;;;;;;;15.20;11.37;;;2.40;99.90;;;;;;4986006;28;20182;-73
2021/12/12 07:14:14;;;;;;;17.20;11.37;;;2.50;99.90;;;;;;4990910;28;20194;-73
2021/12/12 07:16:41;;;;;;;13.50;10.03;;;2.60;99.90;;;;;;4989096;28;20174;-73
2021/12/12 07:19:07;;;;;;;11.93;10.13;;;2.70;99.90;;;;;;4991763;28;20190;-73
2021/12/12 07:21:34;;;;;;;9.33;7.77;;;2.60;99.90;;;;;;4993323;28;20186;-74
2021/12/12 07:24:02;;;;;;;11.03;7.97;;;2.60;99.90;;;;;;4991357;28;20177;-71
2021/12/12 07:26:28;;;;;;;7.63;6.30;;;2.50;99.90;;;;;;4992923;28;20178;-73
2021/12/12 07:28:55;;;;;;;9.17;7.00;;;2.30;99.90;;;;;;4991109;28;20205;-76
2021/12/12 07:31:24;;;;;;;6.03;5.43;;;2.20;99.90;;;;;;4994105;28;20177;-76
2021/12/12 07:33:54;;;;;;;12.53;6.37;;;2.10;99.90;;;;;;4991428;28;20292;-76
2021/12/12 07:36:21;;;;;;;5.80;5.10;;;2.10;99.90;;;;;;4991207;28;20182;-77
2021/12/12 07:38:52;;;;;;;7.77;5.67;;;2.00;99.90;;;;;;4992524;28;20198;-77
2021/12/12 07:41:20;;;;;;;7.77;5.57;;;2.00;99.90;;;;;;4991410;28;20614;-76
2021/12/12 07:43:46;;;;;;;5.40;4.53;;;2.00;99.90;;;;;;4991238;28;20182;-76
2021/12/12 07:46:12;;;;;;;5.77;5.10;;;2.00;99.90;;;;;;4992158;28;20186;-74
2021/12/12 07:48:42;;;;;;;6.67;5.93;;;2.00;99.90;;;;;;4992324;28;20213;-73
2021/12/12 07:51:09;;;;;;;5.63;5.10;;;2.10;99.90;;;;;;4991531;28;20181;-73
2021/12/12 07:53:35;;;;;;;6.23;5.07;;;2.20;99.90;;;;;;4989375;28;20292;-74
2021/12/12 07:56:01;;;;;;;9.33;6.33;;;2.30;99.90;;;;;;4992657;28;20190;-75
2021/12/12 07:58:28;;;;;;;9.47;7.30;;;2.40;99.90;;;;;;4989354;28;20194;-74
2021/12/12 08:00:56;;;;;;;5.97;5.47;;;2.50;99.90;;;;;;4991467;28;20185;-75
2021/12/12 08:03:29;;;;;;;5.40;4.10;;;2.60;99.90;;;;;;4990785;28;20186;-72
2021/12/12 08:05:56;;;;;;;4.73;4.17;;;2.70;99.90;;;;;;4990673;28;20182;-74
2021/12/12 08:08:24;;;;;;;10.23;4.60;;;2.80;99.90;;;;;;4992903;28;20300;-74
2021/12/12 08:10:50;;;;;;;8.00;4.23;;;2.90;99.90;;;;;;4986904;28;20222;-74
2021/12/12 08:13:17;;;;;;;7.37;5.73;;;2.90;99.90;;;;;;4992710;28;20227;-75
2021/12/12 08:15:44;;;;;;;6.70;5.90;;;2.90;99.90;;;;;;4992243;28;20189;-72
2021/12/12 08:18:15;;;;;;;8.30;6.23;;;2.80;99.90;;;;;;4988190;28;20206;-72
2021/12/12 08:20:40;;;;;;;9.80;6.40;;;2.90;99.90;;;;;;4985380;28;20612;-71
2021/12/12 08:23:07;;;;;;;8.83;6.87;;;2.90;99.90;;;;;;4992993;28;20285;-71
2021/12/12 08:25:34;;;;;;;12.33;7.33;;;3.00;99.90;;;;;;4984064;28;20193;-71
2021/12/12 08:28:02;;;;;;;6.47;5.87;;;3.00;99.90;;;;;;4971925;28;20202;-72
2021/12/12 08:30:30;;;;;;;7.63;6.77;;;3.10;99.90;;;;;;4973546;28;20183;-71
2021/12/12 08:32:57;;;;;;;9.67;6.67;;;3.10;99.90;;;;;;4980962;28;20689;-72
2021/12/12 08:35:24;;;;;;;7.53;6.30;;;3.20;99.90;;;;;;4985469;28;20182;-71
2021/12/12 08:37:50;;;;;;;6.33;5.73;;;3.10;99.90;;;;;;4986807;28;20676;-74
2021/12/12 08:40:22;;;;;;;5.43;4.93;;;3.10;99.90;;;;;;4981228;28;20201;-73
2021/12/12 08:42:50;;;;;;;6.70;5.10;;;3.30;99.90;;;;;;4975858;28;20191;-72
2021/12/12 08:45:19;;;;;;;6.77;5.50;;;3.40;99.90;;;;;;4977795;28;20190;-74
2021/12/12 08:47:47;;;;;;;7.30;5.33;;;3.50;99.90;;;;;;4977277;28;20281;-73
2021/12/12 08:50:16;;;;;;;7.17;5.53;;;3.60;99.90;;;;;;4973368;28;20175;-72
2021/12/12 08:52:44;;;;;;;6.80;5.57;;;3.60;99.90;;;;;;4972056;28;20178;-72
2021/12/12 08:55:18;;;;;;;8.03;5.50;;;3.50;99.90;;;;;;4977788;28;20194;-71
2021/12/12 08:57:57;;;;;;;7.47;5.50;;;3.60;99.90;;;;;;4973349;28;20652;-70
2021/12/12 09:00:25;;;;;;;5.90;5.30;;;3.80;99.90;;;;;;4973228;28;20304;-74
2021/12/12 09:02:53;;;;;;;6.90;5.23;;;3.80;99.90;;;;;;4981681;28;20190;-70
2021/12/12 09:05:27;;;;;;;8.40;6.70;;;3.80;99.90;;;;;;4991307;28;20452;-71
2021/12/12 09:07:58;;;;;;;17.80;6.70;;;3.70;99.90;;;;;;4992076;28;20209;-71
2021/12/12 09:10:33;;;;;;;6.73;5.93;;;3.80;99.90;;;;;;4972949;28;20178;-71
2021/12/12 09:13:06;;;;;;;7.97;6.70;;;3.90;99.90;;;;;;4981226;28;20673;-72
2021/12/12 09:15:43;;;;;;;7.00;5.70;;;4.10;99.90;;;;;;4974633;28;20563;-71
2021/12/12 09:18:19;;;;;;;9.90;6.97;;;4.00;99.90;;;;;;4995796;28;20358;-71
2021/12/12 09:21:26;;;;;;;8.87;6.23;;;4.10;99.90;;;;;;4991821;28;20198;-70
2021/12/12 09:24:13;;;;;;;9.57;6.97;;;4.00;99.90;;;;;;4985863;28;20210;-71
2021/12/12 09:26:47;;;;;;;9.40;6.67;;;4.00;99.90;;;;;;4986776;28;20304;-71
2021/12/12 09:29:45;;;;;;;9.20;6.43;;;3.90;99.90;;;;;;4987643;28;20205;-71
2021/12/12 09:32:21;;;;;;;9.90;7.27;;;3.90;99.90;;;;;;4968013;28;20194;-71
2021/12/12 09:34:59;;;;;;;10.17;8.13;;;4.00;99.90;;;;;;4987349;28;20216;-71
2021/12/12 09:37:38;;;;;;;9.83;8.13;;;4.00;99.90;;;;;;4967322;28;20268;-81
2021/12/12 09:40:23;;;;;;;11.57;8.50;;;3.70;99.90;;;;;;4966136;28;20179;-72
2021/12/12 09:43:11;;;;;;;11.60;8.70;;;3.60;99.90;;;;;;4986765;28;20220;-72
2021/12/12 09:45:37;;;;;;;10.50;8.47;;;3.80;99.90;;;;;;4985594;28;20174;-72
2021/12/12 09:51:42;;;;;;;10.53;9.10;;;3.60;99.90;;;;;;4986192;28;20716;-72
2021/12/12 09:54:47;;;;;;;10.03;8.43;;;3.60;99.90;;;;;;4986023;28;20208;-72
2021/12/12 09:57:22;;;;;;;9.53;8.63;;;3.70;99.90;;;;;;4944863;28;20289;-74
2021/12/12 10:00:09;;;;;;;10.57;8.90;;;3.70;99.90;;;;;;4983830;28;20244;-71
2021/12/12 10:02:41;;;;;;;12.30;9.37;;;3.90;99.90;;;;;;4980210;28;20228;-72
2021/12/12 10:05:08;;;;;;;12.43;8.37;;;3.90;99.90;;;;;;4994650;28;20193;-72
2021/12/12 10:08:02;;;;;;;10.03;8.40;;;3.90;99.90;;;;;;4994608;28;20209;-71
2021/12/12 10:10:31;;;;;;;10.17;7.43;;;3.90;99.90;;;;;;4978342;28;20345;-73
2021/12/12 10:13:31;;;;;;;10.87;9.77;;;4.00;99.90;;;;;;4995347;28;20190;-73
2021/12/12 10:16:03;;;;;;;9.47;8.53;;;4.10;99.90;;;;;;4991768;28;20216;-73
2021/12/12 10:19:00;;;;;;;10.80;7.80;;;4.10;99.90;;;;;;4995026;28;20197;-73
2021/12/12 10:21:32;;;;;;;11.23;9.03;;;4.20;99.90;;;;;;4995173;28;20209;-73
2021/12/12 10:24:30;;;;;;;9.43;8.40;;;4.00;99.90;;;;;;4991656;28;20540;-73
2021/12/12 10:27:07;;;;;;;14.00;8.93;;;4.10;99.90;;;;;;4980940;28;20197;-73
2021/12/12 10:30:13;;;;;;;9.37;7.07;;;4.40;99.90;;;;;;4978247;28;20195;-74
2021/12/12 10:33:13;;;;;;;11.00;8.20;;;4.60;99.90;;;;;;4981089;28;20186;-73
2021/12/12 10:35:47;;;;;;;9.63;8.03;;;4.80;99.90;;;;;;4994619;28;20209;-73
2021/12/12 10:38:32;;;;;;;10.67;9.00;;;4.90;99.90;;;;;;4994803;28;20684;-75
2021/12/12 10:41:15;;;;;;;10.43;8.60;;;4.80;99.90;;;;;;4994092;28;20190;-74
2021/12/12 10:44:19;;;;;;;9.67;7.37;;;5.00;99.90;;;;;;4979639;28;20175;-73
2021/12/12 10:47:28;;;;;;;10.57;8.87;;;5.00;99.90;;;;;;4963351;28;20214;-73
2021/12/12 10:50:07;;;;;;;8.00;6.60;;;5.20;99.90;;;;;;4972536;28;20182;-77
2021/12/12 10:52:47;;;;;;;9.05;7.95;;;5.30;99.90;;;;;;4994930;28;20166;-75
2021/12/12 10:55:13;;;;;;;8.23;7.30;;;5.50;99.90;;;;;;4988105;28;20213;-76
2021/12/12 10:57:41;;;;;;;9.50;6.85;;;5.80;99.90;;;;;;4975177;28;20222;-75
2021/12/12 11:00:20;;;;;;;7.95;7.22;;;6.00;99.90;;;;;;4986928;28;20549;-76
2021/12/12 11:03:05;;;;;;;7.82;7.00;;;6.10;99.90;;;;;;4993319;28;20194;-76
2021/12/12 11:05:45;;;;;;;7.70;6.97;;;6.20;99.90;;;;;;4984726;28;20178;-76
2021/12/12 11:08:33;;;;;;;8.45;7.30;;;6.50;99.90;;;;;;4984038;28;20221;-77
2021/12/12 11:11:00;;;;;;;6.25;5.65;;;9.30;99.90;;;;;;4975638;28;20178;-77
2021/12/12 11:13:47;;;;;;;4.15;3.85;;;11.70;99.90;;;;;;4988104;28;20229;-77
2021/12/12 11:16:25;;;;;;;5.95;3.97;;;12.90;99.90;;;;;;4981279;28;20173;-76
2021/12/12 11:19:17;;;;;;;4.72;4.28;;;14.20;95.00;;;;;;4988993;28;20615;-75
2021/12/12 11:21:48;;;;;;;4.70;4.38;;;15.10;90.80;;;;;;4992746;28;20205;-75
2021/12/12 11:24:39;;;;;;;4.50;4.10;;;16.20;83.40;;;;;;4984020;28;20685;-75
2021/12/12 11:27:14;;;;;;;4.82;4.53;;;16.90;75.50;;;;;;4982734;28;20602;-75
2021/12/12 11:29:44;;;;;;;4.53;4.13;;;17.00;70.60;;;;;;4993408;28;20707;-76
2021/12/12 11:32:15;;;;;;;4.68;4.20;;;17.00;68.50;;;;;;4992446;28;20189;-76
2021/12/12 11:34:47;;;;;;;5.25;4.85;;;16.50;73.60;;;;;;4987155;28;20217;-75
2021/12/12 11:37:22;;;;;;;4.32;3.92;;;15.90;73.50;;;;;;4991593;28;20170;-75
2021/12/12 11:39:54;;;;;;;4.05;3.65;;;15.50;73.10;;;;;;4982009;28;20232;-75
2021/12/12 11:42:46;;;;;;;3.40;3.10;;;15.30;70.70;;;;;;4983298;28;20178;-76
2021/12/12 11:45:24;;;;;;;3.88;2.47;;;14.40;71.10;;;;;;4991593;28;20269;-77
2021/12/12 11:48:11;;;;;;;3.58;3.38;;;13.70;74.50;;;;;;4988812;28;20200;-76
2021/12/12 11:50:49;;;;;;;3.60;3.30;;;13.60;74.30;;;;;;4982669;28;20272;-75
2021/12/12 11:53:21;;;;;;;3.63;3.35;;;14.30;74.00;;;;;;4983479;28;20194;-76
2021/12/12 11:56:04;;;;;;;3.28;3.05;;;14.40;71.80;;;;;;4989882;28;20557;-76
2021/12/12 11:58:39;;;;;;;3.53;3.33;;;14.10;73.90;;;;;;4991256;28;20202;-76
2021/12/12 12:01:33;;;;;;;3.92;3.63;;;14.50;73.40;;;;;;5069464;28;20596;-76
2021/12/12 12:04:14;;;;;;;3.85;3.55;;;14.80;73.80;;;;;;5065960;28;20657;-77
2021/12/12 12:07:07;;;;;;;3.55;3.25;;;15.60;71.60;;;;;;5069907;28;20179;-78
2021/12/12 12:09:49;;;;;;;3.90;3.60;;;15.90;66.20;;;;;;5049551;28;20238;-79
2021/12/12 12:12:51;;;;;;;3.70;3.40;;;15.90;69.70;;;;;;5054054;28;20299;-81
2021/12/12 12:15:49;;;;;;;4.20;3.80;;;16.00;69.40;;;;;;5049014;28;20654;-79
2021/12/12 12:18:39;;;;;;;5.10;4.18;;;16.00;68.90;;;;;;5050739;28;20254;-78
2021/12/12 12:21:10;;;;;;;3.97;3.53;;;15.90;68.10;;;;;;5052417;28;20211;-78
2021/12/12 12:24:25;;;;;;;3.88;3.58;;;15.70;65.90;;;;;;5050464;28;20335;-78
2021/12/12 12:27:04;;;;;;;4.05;3.70;;;15.40;66.50;;;;;;5027347;28;20185;-80
2021/12/12 12:29:33;;;;;;;4.75;4.35;;;15.10;67.20;;;;;;5044936;28;20601;-78
2021/12/12 12:32:05;;;;;;;4.03;3.70;;;14.80;67.60;;;;;;5044610;28;20691;-79
2021/12/12 12:34:48;;;;;;;4.65;3.95;;;13.90;69.60;;;;;;5045743;28;20188;-78
2021/12/12 12:37:51;;;;;;;4.57;4.15;;;13.30;71.20;;;;;;5063796;28;20188;-78
2021/12/12 12:40:38;;;;;;;4.78;4.38;;;12.50;73.80;;;;;;5048805;28;20227;-77
2021/12/12 12:43:41;;;;;;;4.57;4.28;;;11.60;75.30;;;;;;5044642;28;20658;-77
2021/12/12 12:46:37;;;;;;;4.90;3.72;;;10.40;78.60;;;;;;5028383;28;20259;-77
2021/12/12 12:49:42;;;;;;;4.88;4.47;;;9.80;83.20;;;;;;5029925;28;20260;-77
2021/12/12 12:52:32;;;;;;;3.85;3.55;;;9.20;85.70;;;;;;5069010;28;20188;-77
2021/12/12 12:55:30;;;;;;;4.45;4.05;;;8.70;88.50;;;;;;5028546;28;20240;-75
2021/12/12 12:58:10;;;;;;;4.55;4.15;;;8.10;91.30;;;;;;5032530;28;20280;-75
2021/12/12 13:00:37;;;;;;;5.00;4.60;;;7.90;92.80;;;;;;5045273;28;20674;-75
2021/12/12 13:03:05;;;;;;;5.03;4.63;;;7.50;94.70;;;;;;5047602;28;20670;-75
2021/12/12 13:05:57;;;;;;;4.57;4.18;;;7.60;95.80;;;;;;5046846;28;20651;-75
2021/12/12 13:09:00;;;;;;;4.63;4.22;;;7.80;96.20;;;;;;5047366;28;20358;-76
2021/12/12 13:11:41;;;;;;;7.95;6.32;;;7.90;95.80;;;;;;5041034;28;20251;-75
2021/12/12 13:14:19;;;;;;;5.00;4.50;;;8.00;96.00;;;;;;5025239;28;20177;-76
2021/12/12 13:16:47;;;;;;;5.15;4.75;;;7.90;96.30;;;;;;5026361;28;20183;-75
2021/12/12 13:19:26;;;;;;;5.28;4.78;;;7.70;97.40;;;;;;5028873;28;20568;-74
2021/12/12 13:22:21;;;;;;;5.47;4.97;;;7.60;98.00;;;;;;5033817;28;20204;-76
2021/12/12 13:25:15;;;;;;;5.28;4.78;;;7.70;98.70;;;;;;5020985;28;20185;-75
2021/12/12 13:30:41;;;;;;;5.70;5.13;;;8.10;98.40;;;;;;5033025;28;20269;-76
2021/12/12 13:33:17;;;;;;;4.40;4.00;;;7.80;98.50;;;;;;5033250;28;20627;-75
2021/12/12 13:36:26;;;;;;;5.30;4.90;;;7.90;99.10;;;;;;5032915;28;20175;-76
2021/12/12 13:39:07;;;;;;;5.75;5.05;;;7.50;99.90;;;;;;5030391;28;20200;-75
2021/12/12 13:41:55;;;;;;;6.53;5.85;;;7.00;99.90;;;;;;5029071;28;20185;-75